默认 日期 大小 文件数 浏览量 最新下载 xml
ukts磁力链接相关资源由用户搜索指令自动获取,结果来源于网络,本站不存储任何资料,亦不承担任何责任,请于24小时内删除,搜索到41个磁力,用时0ms。
    {"trivium.nfo": 8846, "TVM_UKTS.iso": 513417216}
创建时间: 2018-11-04 18:52:21 大小:489.64 MB 文件数量:2 热度:13 最近下载:2025-04-11 11:55:02
    ... UKTS_25646_First_Train_of_the_day_Weston-super-Mare_to_Bristol_Temple_Meads.rwp": 55761}, "UKTS Rail Simulator": {"UKTS_17893_47.zip": ... &_GBRf_66_with_Old_&_New_Light_Clusters.zip": 5423613}, "UKTS Train Simulator": {"UKTS_33000_BR.zip": ...
创建时间: 2018-12-11 00:57:33 大小:35.98 GB 文件数量:5173 热度:9 最近下载:2024-12-01 21:56:07
    ... PacksIncludedinTorrent.txt": 1246, "UKTS Freeware Packs.torrent": 22492, "UKTS Freeware Pack - Clutter ... (TSD_FILE 16).zip": 18093912, "UKTS Freeware Route Pack - Candlewick Version ... (TSD_FILE 8).zip": 172613668, "UKTS Freeware Pack - Cumbrian Mountain Express ...
创建时间: 2018-12-21 17:12:25 大小:1010.29 MB 文件数量:20 热度:10 最近下载:2024-12-06 04:27:01
    ... UKTS_19101_Freightliner_&_GBRf_66_with_Old_&_New_Light_Clusters.zip": 5423613}, "UKTS Train Simulator": {"UKTS_33000_BR.zip": ... .S.D_to_New_Cross_Gate_and_9C05_0647_New_Cross_Gate_to_West_Croydon.zip": 217899}, "UKTS New additions (august 2018 to ...
创建时间: 2019-02-14 18:39:15 大小:41.87 GB 文件数量:5469 热度:5 最近下载:2025-04-15 16:54:02
    ... .7z": 4205248, "Train Simulator 2013 (UKTS).7z": 5219621587, "Miscellaneous and Asset ...
创建时间: 2019-02-19 17:57:04 大小:17.23 GB 文件数量:26 热度:5 最近下载:2025-04-28 13:05:02
    ... D_to_New_Cross_Gate_and_9C05_0647_New_Cross_Gate_to_West_Croydon.zip": 217899}, "UKTS New additions (august ... UKTS_38171_2B40_Cardiff_Queen_Street_to_Cardiff_Bay_and_2S40_Cardiff_Bay_to_Cardiff_Queen_Street.zip": 442030}, "UKTS New additions (january 2019 ...
创建时间: 2019-02-28 04:26:07 大小:42.2 GB 文件数量:5508 热度:4 最近下载:2025-03-29 15:14:02
创建时间: 2019-10-01 12:16:19 大小:24.06 GB 文件数量:45947 热度:11 最近下载:2025-07-08 02:47:02
    {"BR(W)": {"UKTS_24337_KLE": {"KLE": {"KLE.rwp": 4871343, "KL4E.jpg": 94529, "Readme.txt": 788}}, "UKTS_24379_KLM": {"KLM.png": 679999, "KLM.rwp": 5087569, "README.txt": 972}, "UKTS_24178_TKL10": {"The Kalm Line v1.0": {"KL4.jpg": 85052, "The Kalm Line v1. ...
创建时间: 2020-09-23 20:28:00 大小:4.08 GB 文件数量:1309 热度:7 最近下载:2025-05-12 22:31:01
    {"Description": {"PDF.zip": 1595083567, "UKTS_filelist.csv": 941558, "UKTS_filelist.xlsx": 597782}, "UKTS_28907_.zip": 1367505, "UKTS_28618_11.7z": 2251326, "UKTS_17893_47.zip": 3144892, "UKTS_20027_76.zip": 11773, "UKTS_21663_IE.zip": 1999923, " ...
创建时间: 2023-03-05 22:23:33 大小:57.5 GB 文件数量:7295 热度:10 最近下载:2025-04-21 11:02:07
    {"Description": {"PDF.zip": 1595083567, "UKTS_filelist.csv": 941558, "UKTS_filelist.xlsx": 597782}, "UKTS_28907_.zip": 1367505, "UKTS_28618_11.7z": 2251326, "UKTS_17893_47.zip": 3144892, "UKTS_20027_76.zip": 11773, "UKTS_21663_IE.zip": 1999923, " ...
创建时间: 2023-06-16 22:35:24 大小:57.29 GB 文件数量:7294 热度:5 最近下载:2025-05-05 08:35:01
    {"__ia_thumb.jpg": 3556, "___ia_thumb.jpg": 3563, "ukts_filelist.html": 4407252, "ukts-archive-files-2001-3000_meta.xml": 2108, "ukts-archive-files-2001-3000_meta.sqlite": 28672}
创建时间: 2023-06-23 16:59:30 大小:4.24 MB 文件数量:5 热度:5 最近下载:2025-04-24 23:14:03
    ... .zip": 200397, "UKTS_4368_InterCityMidLand125HSTa.zip": 6963738, "ukts-archive-files-4001-5000_meta.xml ... ": 1828221, "UKTS_4112_Somerset_through_goods.act.zip": 120479, "ukts-archive-files-4001-5000_meta.sqlite ...
创建时间: 2023-08-05 16:49:38 大小:371.45 MB 文件数量:247 热度:5 最近下载:2025-04-29 05:55:01
    ... ": 27240, "UKTS_11933_Gallivare-Arvidisjaur840.zip": 358753, "ukts-archive-files-11001-12000_meta.xml ... .zip": 17284, "UKTS_11921_Preview0715RedhillLondonBr.zip": 19559, "ukts-archive-files-11001-12000_meta.sqlite ...
创建时间: 2023-08-05 23:28:31 大小:967.45 MB 文件数量:410 热度:5 最近下载:2025-04-26 11:31:02
    ... ": 90401, "UKTS_37823_S_-_Windsor_Waterloo_P16.zip": 251563, "ukts-archive-files-37001-38000_meta.xml ... ": 112017, "UKTS_37770_sb_Euston-Manchester_70s_OR.zip": 312803, "ukts-archive-files-37001-38000_meta.sqlite ...
创建时间: 2023-09-25 17:53:22 大小:3.83 GB 文件数量:1080 热度:7 最近下载:2025-06-16 17:33:01
    {"Description": {"PDF.zip": 1607368677, "UKTS_filelist.csv": 983601, "UKTS_filelist.xlsx": 606388}, "UKTS_28907_.zip": 1367505, "UKTS_28618_11.7z": 2251326, "UKTS_17893_47.zip": 3144892, "UKTS_20027_76.zip": 11773, "UKTS_21663_IE.zip": 1999923, " ...
创建时间: 2023-10-05 05:55:31 大小:68.22 GB 文件数量:7994 热度:10 最近下载:2025-01-13 00:40:02
    ... ].zip": 12100225, "UKTS_18038_BD2_PM_Codnor_Park_Shunt.zip": 18305, "ukts-archive-files-18001-19000_meta.xml ... .zip": 342009, "UKTS_18182_SWT_Slammer_Activity_Pack_2.zip": 1171633, "ukts-archive-files-18001-19000_meta.sqlite ...
创建时间: 2023-10-26 16:32:42 大小:361.77 MB 文件数量:127 热度:7 最近下载:2025-06-01 23:57:02
    ... ": 2545, "UKTS_31805_ACWH03_1221_Glasgow-Oban.zip": 2864, "ukts-archive-files-31001-32000_meta.xml ... .zip": 267324, "UKTS_31943_Edinburgh_Christmas_Shopper.zip": 42814, "ukts-archive-files-31001-32000_meta.sqlite ...
创建时间: 2023-10-27 08:20:07 大小:5.13 GB 文件数量:1184 热度:5 最近下载:2025-01-11 14:12:06
    ... .csv": 983601, "UKTS_filelist.xlsx": 606388}, "UKTS Library.7z": 0, "UKTS_28907_.zip ...
创建时间: 2023-11-04 08:28:36 大小:68.3 GB 文件数量:8001 热度:4 最近下载:2025-02-06 09:22:04
    ... .zip": 3551474, "UKTS_21137_BZZ_USNG3_C16_268_common.zip": 33631666, "ukts-archive-files-21001-22000_meta.xml ... .zip": 13786958, "UKTS_21209_Setup_MT_66_DBSchenker_Pack.zip": 6023623, "ukts-archive-files-21001-22000_meta.sqlite ...
创建时间: 2023-12-06 18:42:29 大小:658.89 MB 文件数量:96 热度:7 最近下载:2025-08-24 23:06:02
    ... ": 111347, "UKTS_39954_Southampton-Denbigh_Park.rwp": 74533, "ukts-archive-files-39001-40000_meta.xml ... ": 3929343, "UKTS_39991_1M52_Westhampton-Birmingham.rwp": 78742, "ukts-archive-files-39001-40000_meta.sqlite ...
创建时间: 2023-12-11 19:59:49 大小:14.23 GB 文件数量:1104 热度:10 最近下载:2025-05-12 03:23:01
1>»